Providence Village's Hourly Summary for Sunday, July 8, 2018
Hour Temp
(f)
RH
(%)
Solar Rad.
(MJ/m2)
Rainfall
(in)
Wind
(mph)
7/8/2018 12:00 AM 81 63 0 0 2.48
7/8/2018 1:00 AM 79 68 0 0 1.1
7/8/2018 2:00 AM 78 71 0 0 0.76
7/8/2018 3:00 AM 77 74 0 0 1.36
7/8/2018 4:00 AM 76 77 0 0 1.28
7/8/2018 5:00 AM 75 81 0 0 1.71
7/8/2018 6:00 AM 74 85 0 0 1.78
7/8/2018 7:00 AM 73 89 0.03 0 2.3
7/8/2018 8:00 AM 76 78 0.37 0 3.01
7/8/2018 9:00 AM 81 69 0.96 0 5.1
7/8/2018 10:00 AM 82 62 0.72 0 6.69
7/8/2018 11:00 AM 85 54 2.23 0 6.1
7/8/2018 12:00 PM 88 45 2.78 0 7.21
7/8/2018 1:00 PM 90 44 2.98 0 7.75
7/8/2018 2:00 PM 91 40 2.19 0 8.13
7/8/2018 3:00 PM 92 37 3.13 0 8.75
7/8/2018 4:00 PM 93 36 2.5 0 9.83
7/8/2018 5:00 PM 93 34 2.39 0 9.49
7/8/2018 6:00 PM 93 36 1.79 0 9.13
7/8/2018 7:00 PM 93 36 1.38 0 8.49
7/8/2018 8:00 PM 91 38 0.58 0 8.26
7/8/2018 9:00 PM 88 41 0.04 0 4.31
7/8/2018 10:00 PM 85 56 0 0 4.79
7/8/2018 11:00 PM 82 60 0 0 3.96
Data Summary 84 57 24.07 0.00 5.16